sensor_id;sensor_type;location;lat;lon;timestamp;P1;durP1;ratioP1;P2;durP2;ratioP2
15476;SDS011;7840;42.702;23.296;2022-08-19T00:02:18;6.65;;;5.90;;
15476;SDS011;7840;42.702;23.296;2022-08-19T00:04:46;6.93;;;6.13;;
15476;SDS011;7840;42.702;23.296;2022-08-19T00:07:17;7.88;;;6.57;;
15476;SDS011;7840;42.702;23.296;2022-08-19T00:09:47;7.10;;;6.43;;
15476;SDS011;7840;42.702;23.296;2022-08-19T00:12:14;8.18;;;6.20;;
15476;SDS011;7840;42.702;23.296;2022-08-19T00:14:42;8.70;;;6.43;;
15476;SDS011;7840;42.702;23.296;2022-08-19T00:17:10;9.40;;;6.35;;
15476;SDS011;7840;42.702;23.296;2022-08-19T00:19:38;7.40;;;6.22;;
15476;SDS011;7840;42.702;23.296;2022-08-19T00:22:06;6.68;;;5.95;;
15476;SDS011;7840;42.702;23.296;2022-08-19T00:24:35;8.75;;;6.25;;
15476;SDS011;7840;42.702;23.296;2022-08-19T00:27:05;7.68;;;6.78;;
15476;SDS011;7840;42.702;23.296;2022-08-19T00:29:33;7.35;;;6.45;;
15476;SDS011;7840;42.702;23.296;2022-08-19T00:32:00;6.85;;;6.25;;
15476;SDS011;7840;42.702;23.296;2022-08-19T00:34:28;9.63;;;6.18;;
15476;SDS011;7840;42.702;23.296;2022-08-19T00:36:56;6.60;;;5.57;;
15476;SDS011;7840;42.702;23.296;2022-08-19T00:39:28;9.55;;;6.70;;
15476;SDS011;7840;42.702;23.296;2022-08-19T00:41:55;6.30;;;5.80;;
15476;SDS011;7840;42.702;23.296;2022-08-19T00:44:25;8.02;;;5.97;;
15476;SDS011;7840;42.702;23.296;2022-08-19T00:46:56;7.72;;;6.30;;
15476;SDS011;7840;42.702;23.296;2022-08-19T00:49:25;7.10;;;6.15;;
15476;SDS011;7840;42.702;23.296;2022-08-19T00:51:59;7.38;;;6.68;;
15476;SDS011;7840;42.702;23.296;2022-08-19T00:54:30;8.88;;;6.30;;
15476;SDS011;7840;42.702;23.296;2022-08-19T00:56:58;6.40;;;5.90;;
15476;SDS011;7840;42.702;23.296;2022-08-19T00:59:29;6.75;;;6.13;;
15476;SDS011;7840;42.702;23.296;2022-08-19T01:01:57;6.93;;;6.25;;
15476;SDS011;7840;42.702;23.296;2022-08-19T01:04:25;7.22;;;6.60;;
15476;SDS011;7840;42.702;23.296;2022-08-19T01:06:52;7.22;;;6.53;;
15476;SDS011;7840;42.702;23.296;2022-08-19T01:09:21;7.78;;;6.13;;
15476;SDS011;7840;42.702;23.296;2022-08-19T01:11:49;8.27;;;6.47;;
15476;SDS011;7840;42.702;23.296;2022-08-19T01:14:17;7.43;;;6.10;;
15476;SDS011;7840;42.702;23.296;2022-08-19T01:16:47;8.32;;;6.50;;
15476;SDS011;7840;42.702;23.296;2022-08-19T01:19:21;7.20;;;6.50;;
15476;SDS011;7840;42.702;23.296;2022-08-19T01:21:55;7.93;;;5.88;;
15476;SDS011;7840;42.702;23.296;2022-08-19T01:24:29;7.07;;;6.47;;
15476;SDS011;7840;42.702;23.296;2022-08-19T01:26:57;6.43;;;5.93;;
15476;SDS011;7840;42.702;23.296;2022-08-19T01:29:25;7.18;;;6.43;;
15476;SDS011;7840;42.702;23.296;2022-08-19T01:31:54;10.10;;;6.38;;
15476;SDS011;7840;42.702;23.296;2022-08-19T01:34:21;9.05;;;6.22;;
15476;SDS011;7840;42.702;23.296;2022-08-19T01:36:52;7.75;;;6.78;;
15476;SDS011;7840;42.702;23.296;2022-08-19T01:39:21;7.22;;;6.35;;
15476;SDS011;7840;42.702;23.296;2022-08-19T01:41:52;7.13;;;6.05;;
15476;SDS011;7840;42.702;23.296;2022-08-19T01:44:20;7.93;;;6.32;;
15476;SDS011;7840;42.702;23.296;2022-08-19T01:46:50;6.57;;;5.90;;
15476;SDS011;7840;42.702;23.296;2022-08-19T01:49:19;6.82;;;6.20;;
15476;SDS011;7840;42.702;23.296;2022-08-19T01:51:48;7.40;;;6.15;;
15476;SDS011;7840;42.702;23.296;2022-08-19T01:54:16;7.28;;;6.57;;
15476;SDS011;7840;42.702;23.296;2022-08-19T01:56:46;7.15;;;6.55;;
15476;SDS011;7840;42.702;23.296;2022-08-19T01:59:17;9.73;;;6.10;;
15476;SDS011;7840;42.702;23.296;2022-08-19T02:01:47;7.85;;;6.30;;
15476;SDS011;7840;42.702;23.296;2022-08-19T02:04:14;7.18;;;6.53;;
15476;SDS011;7840;42.702;23.296;2022-08-19T02:06:42;6.97;;;6.35;;
15476;SDS011;7840;42.702;23.296;2022-08-19T02:09:10;7.18;;;6.57;;
15476;SDS011;7840;42.702;23.296;2022-08-19T02:11:37;6.95;;;6.25;;
15476;SDS011;7840;42.702;23.296;2022-08-19T02:14:19;7.25;;;6.50;;
15476;SDS011;7840;42.702;23.296;2022-08-19T02:16:47;9.98;;;6.97;;
15476;SDS011;7840;42.702;23.296;2022-08-19T02:19:15;8.68;;;6.35;;
15476;SDS011;7840;42.702;23.296;2022-08-19T02:21:43;7.22;;;6.53;;
15476;SDS011;7840;42.702;23.296;2022-08-19T02:24:10;7.82;;;6.82;;
15476;SDS011;7840;42.702;23.296;2022-08-19T02:26:38;7.70;;;6.90;;
15476;SDS011;7840;42.702;23.296;2022-08-19T02:29:06;7.93;;;6.80;;
15476;SDS011;7840;42.702;23.296;2022-08-19T02:31:35;7.43;;;6.80;;
15476;SDS011;7840;42.702;23.296;2022-08-19T02:34:03;8.20;;;7.25;;
15476;SDS011;7840;42.702;23.296;2022-08-19T02:36:31;8.75;;;6.88;;
15476;SDS011;7840;42.702;23.296;2022-08-19T02:38:58;7.55;;;6.70;;
15476;SDS011;7840;42.702;23.296;2022-08-19T02:41:26;8.23;;;6.85;;
15476;SDS011;7840;42.702;23.296;2022-08-19T02:43:56;7.78;;;6.72;;
15476;SDS011;7840;42.702;23.296;2022-08-19T02:46:28;8.15;;;6.90;;
15476;SDS011;7840;42.702;23.296;2022-08-19T02:48:59;7.43;;;6.75;;
15476;SDS011;7840;42.702;23.296;2022-08-19T02:51:29;10.10;;;6.75;;
15476;SDS011;7840;42.702;23.296;2022-08-19T02:53:59;8.43;;;7.63;;
15476;SDS011;7840;42.702;23.296;2022-08-19T02:56:27;9.75;;;6.97;;
15476;SDS011;7840;42.702;23.296;2022-08-19T02:58:55;8.63;;;7.35;;
15476;SDS011;7840;42.702;23.296;2022-08-19T03:01:37;7.78;;;6.95;;
15476;SDS011;7840;42.702;23.296;2022-08-19T03:04:08;7.85;;;7.18;;
15476;SDS011;7840;42.702;23.296;2022-08-19T03:06:38;10.23;;;8.05;;
15476;SDS011;7840;42.702;23.296;2022-08-19T03:09:07;9.23;;;7.10;;
15476;SDS011;7840;42.702;23.296;2022-08-19T03:11:38;8.40;;;7.28;;
15476;SDS011;7840;42.702;23.296;2022-08-19T03:14:07;10.43;;;7.50;;
15476;SDS011;7840;42.702;23.296;2022-08-19T03:16:40;8.43;;;7.30;;
15476;SDS011;7840;42.702;23.296;2022-08-19T03:19:10;7.90;;;7.20;;
15476;SDS011;7840;42.702;23.296;2022-08-19T03:21:38;8.20;;;7.47;;
15476;SDS011;7840;42.702;23.296;2022-08-19T03:24:06;13.23;;;7.95;;
15476;SDS011;7840;42.702;23.296;2022-08-19T03:26:37;11.52;;;7.78;;
15476;SDS011;7840;42.702;23.296;2022-08-19T03:29:05;11.25;;;7.55;;
15476;SDS011;7840;42.702;23.296;2022-08-19T03:31:35;10.00;;;7.55;;
15476;SDS011;7840;42.702;23.296;2022-08-19T03:34:03;9.13;;;8.18;;
15476;SDS011;7840;42.702;23.296;2022-08-19T03:36:36;8.43;;;7.60;;
15476;SDS011;7840;42.702;23.296;2022-08-19T03:39:04;8.65;;;7.88;;
15476;SDS011;7840;42.702;23.296;2022-08-19T03:41:36;9.50;;;8.38;;
15476;SDS011;7840;42.702;23.296;2022-08-19T03:44:06;10.02;;;8.32;;
15476;SDS011;7840;42.702;23.296;2022-08-19T03:46:33;9.57;;;8.60;;
15476;SDS011;7840;42.702;23.296;2022-08-19T03:49:02;9.30;;;8.05;;
15476;SDS011;7840;42.702;23.296;2022-08-19T03:51:33;9.98;;;9.02;;
15476;SDS011;7840;42.702;23.296;2022-08-19T03:54:19;8.90;;;8.15;;
15476;SDS011;7840;42.702;23.296;2022-08-19T03:56:50;9.43;;;8.60;;
15476;SDS011;7840;42.702;23.296;2022-08-19T03:59:20;11.77;;;8.27;;
15476;SDS011;7840;42.702;23.296;2022-08-19T04:01:51;15.88;;;9.55;;
15476;SDS011;7840;42.702;23.296;2022-08-19T04:04:19;11.57;;;9.55;;
15476;SDS011;7840;42.702;23.296;2022-08-19T04:06:57;10.80;;;8.88;;
15476;SDS011;7840;42.702;23.296;2022-08-19T04:09:25;9.43;;;8.40;;
15476;SDS011;7840;42.702;23.296;2022-08-19T04:11:56;8.57;;;7.88;;
15476;SDS011;7840;42.702;23.296;2022-08-19T04:14:25;9.18;;;8.38;;
15476;SDS011;7840;42.702;23.296;2022-08-19T04:17:00;10.00;;;8.55;;
15476;SDS011;7840;42.702;23.296;2022-08-19T04:19:31;10.60;;;8.40;;
15476;SDS011;7840;42.702;23.296;2022-08-19T04:22:00;8.82;;;8.02;;
15476;SDS011;7840;42.702;23.296;2022-08-19T04:24:29;9.43;;;7.78;;
15476;SDS011;7840;42.702;23.296;2022-08-19T04:26:58;9.82;;;8.13;;
15476;SDS011;7840;42.702;23.296;2022-08-19T04:29:27;9.57;;;8.75;;
15476;SDS011;7840;42.702;23.296;2022-08-19T04:31:55;10.93;;;9.05;;
15476;SDS011;7840;42.702;23.296;2022-08-19T04:34:26;9.30;;;8.30;;
15476;SDS011;7840;42.702;23.296;2022-08-19T04:36:55;10.57;;;8.55;;
15476;SDS011;7840;42.702;23.296;2022-08-19T04:39:26;12.07;;;8.80;;
15476;SDS011;7840;42.702;23.296;2022-08-19T04:42:09;12.68;;;8.68;;
15476;SDS011;7840;42.702;23.296;2022-08-19T04:44:46;10.73;;;8.80;;
15476;SDS011;7840;42.702;23.296;2022-08-19T04:47:15;14.65;;;9.88;;
15476;SDS011;7840;42.702;23.296;2022-08-19T04:49:43;12.15;;;8.82;;
15476;SDS011;7840;42.702;23.296;2022-08-19T04:52:11;13.40;;;8.70;;
15476;SDS011;7840;42.702;23.296;2022-08-19T04:54:42;9.75;;;8.70;;
15476;SDS011;7840;42.702;23.296;2022-08-19T04:57:10;12.63;;;9.55;;
15476;SDS011;7840;42.702;23.296;2022-08-19T04:59:38;16.98;;;10.25;;
15476;SDS011;7840;42.702;23.296;2022-08-19T05:02:06;16.00;;;10.57;;
15476;SDS011;7840;42.702;23.296;2022-08-19T05:04:35;12.73;;;10.07;;
15476;SDS011;7840;42.702;23.296;2022-08-19T05:07:04;12.00;;;9.55;;
15476;SDS011;7840;42.702;23.296;2022-08-19T05:09:35;11.93;;;9.88;;
15476;SDS011;7840;42.702;23.296;2022-08-19T05:12:05;26.88;;;10.52;;
15476;SDS011;7840;42.702;23.296;2022-08-19T05:14:33;15.30;;;10.27;;
15476;SDS011;7840;42.702;23.296;2022-08-19T05:17:01;14.77;;;10.35;;
15476;SDS011;7840;42.702;23.296;2022-08-19T05:19:29;11.07;;;10.00;;
15476;SDS011;7840;42.702;23.296;2022-08-19T05:22:14;12.35;;;10.00;;
15476;SDS011;7840;42.702;23.296;2022-08-19T05:25:15;11.20;;;9.52;;
15476;SDS011;7840;42.702;23.296;2022-08-19T05:27:46;13.63;;;9.63;;
15476;SDS011;7840;42.702;23.296;2022-08-19T05:30:14;10.50;;;9.48;;
15476;SDS011;7840;42.702;23.296;2022-08-19T05:32:43;11.82;;;9.68;;
15476;SDS011;7840;42.702;23.296;2022-08-19T05:35:11;12.02;;;10.45;;
15476;SDS011;7840;42.702;23.296;2022-08-19T05:37:40;10.40;;;9.32;;
15476;SDS011;7840;42.702;23.296;2022-08-19T05:40:10;12.13;;;10.07;;
15476;SDS011;7840;42.702;23.296;2022-08-19T05:42:39;12.82;;;10.70;;
15476;SDS011;7840;42.702;23.296;2022-08-19T05:45:09;10.13;;;9.07;;
15476;SDS011;7840;42.702;23.296;2022-08-19T05:47:37;18.02;;;9.68;;
15476;SDS011;7840;42.702;23.296;2022-08-19T05:50:05;13.05;;;9.63;;
15476;SDS011;7840;42.702;23.296;2022-08-19T05:52:33;19.98;;;9.57;;
15476;SDS011;7840;42.702;23.296;2022-08-19T05:55:03;11.18;;;9.73;;
15476;SDS011;7840;42.702;23.296;2022-08-19T05:57:31;15.27;;;9.57;;
15476;SDS011;7840;42.702;23.296;2022-08-19T05:59:59;11.88;;;8.82;;
15476;SDS011;7840;42.702;23.296;2022-08-19T06:02:28;9.05;;;7.60;;
15476;SDS011;7840;42.702;23.296;2022-08-19T06:04:56;15.38;;;9.50;;
15476;SDS011;7840;42.702;23.296;2022-08-19T06:07:26;8.80;;;7.90;;
15476;SDS011;7840;42.702;23.296;2022-08-19T06:10:12;10.05;;;7.72;;
15476;SDS011;7840;42.702;23.296;2022-08-19T06:12:40;12.93;;;8.15;;
15476;SDS011;7840;42.702;23.296;2022-08-19T06:15:09;14.50;;;8.02;;
15476;SDS011;7840;42.702;23.296;2022-08-19T06:17:40;16.23;;;8.70;;
15476;SDS011;7840;42.702;23.296;2022-08-19T06:20:10;11.32;;;8.10;;
15476;SDS011;7840;42.702;23.296;2022-08-19T06:22:41;11.80;;;8.68;;
15476;SDS011;7840;42.702;23.296;2022-08-19T06:25:11;16.73;;;8.88;;
15476;SDS011;7840;42.702;23.296;2022-08-19T06:27:39;13.15;;;8.18;;
15476;SDS011;7840;42.702;23.296;2022-08-19T06:30:10;11.45;;;8.43;;
15476;SDS011;7840;42.702;23.296;2022-08-19T06:32:58;11.88;;;8.93;;
15476;SDS011;7840;42.702;23.296;2022-08-19T06:35:26;15.45;;;8.77;;
15476;SDS011;7840;42.702;23.296;2022-08-19T06:37:55;11.30;;;8.82;;
15476;SDS011;7840;42.702;23.296;2022-08-19T06:40:25;10.82;;;8.40;;
15476;SDS011;7840;42.702;23.296;2022-08-19T06:42:54;12.48;;;7.80;;
15476;SDS011;7840;42.702;23.296;2022-08-19T06:45:23;11.75;;;7.53;;
15476;SDS011;7840;42.702;23.296;2022-08-19T06:47:51;10.15;;;8.70;;
15476;SDS011;7840;42.702;23.296;2022-08-19T06:50:22;10.38;;;9.05;;
15476;SDS011;7840;42.702;23.296;2022-08-19T06:52:50;11.20;;;8.23;;
15476;SDS011;7840;42.702;23.296;2022-08-19T06:55:19;9.82;;;8.07;;
15476;SDS011;7840;42.702;23.296;2022-08-19T06:57:46;13.07;;;7.85;;
15476;SDS011;7840;42.702;23.296;2022-08-19T07:00:18;9.43;;;8.30;;
15476;SDS011;7840;42.702;23.296;2022-08-19T07:02:49;10.05;;;7.82;;
15476;SDS011;7840;42.702;23.296;2022-08-19T07:05:18;13.05;;;8.02;;
15476;SDS011;7840;42.702;23.296;2022-08-19T07:07:49;16.73;;;8.50;;
15476;SDS011;7840;42.702;23.296;2022-08-19T07:10:20;15.95;;;8.70;;
15476;SDS011;7840;42.702;23.296;2022-08-19T07:12:48;15.90;;;8.02;;
15476;SDS011;7840;42.702;23.296;2022-08-19T07:15:15;11.52;;;7.55;;
15476;SDS011;7840;42.702;23.296;2022-08-19T07:17:43;10.57;;;7.60;;
15476;SDS011;7840;42.702;23.296;2022-08-19T07:20:15;15.05;;;7.85;;
15476;SDS011;7840;42.702;23.296;2022-08-19T07:22:44;15.02;;;7.80;;
15476;SDS011;7840;42.702;23.296;2022-08-19T07:25:12;12.38;;;7.28;;
15476;SDS011;7840;42.702;23.296;2022-08-19T07:27:42;14.07;;;7.18;;
15476;SDS011;7840;42.702;23.296;2022-08-19T07:30:11;12.63;;;7.80;;
15476;SDS011;7840;42.702;23.296;2022-08-19T07:32:48;10.73;;;7.60;;
15476;SDS011;7840;42.702;23.296;2022-08-19T07:35:16;11.68;;;7.75;;
15476;SDS011;7840;42.702;23.296;2022-08-19T07:37:51;11.90;;;7.90;;
15476;SDS011;7840;42.702;23.296;2022-08-19T07:40:19;9.55;;;7.88;;
15476;SDS011;7840;42.702;23.296;2022-08-19T07:42:47;9.40;;;8.18;;
15476;SDS011;7840;42.702;23.296;2022-08-19T07:45:14;12.63;;;7.28;;
15476;SDS011;7840;42.702;23.296;2022-08-19T07:47:42;8.80;;;6.80;;
15476;SDS011;7840;42.702;23.296;2022-08-19T07:50:10;12.90;;;7.80;;
15476;SDS011;7840;42.702;23.296;2022-08-19T07:52:38;16.73;;;7.40;;
15476;SDS011;7840;42.702;23.296;2022-08-19T07:55:12;12.82;;;7.93;;
15476;SDS011;7840;42.702;23.296;2022-08-19T07:57:40;9.23;;;7.68;;
15476;SDS011;7840;42.702;23.296;2022-08-19T08:00:08;11.27;;;7.53;;
15476;SDS011;7840;42.702;23.296;2022-08-19T08:02:36;10.75;;;7.75;;
15476;SDS011;7840;42.702;23.296;2022-08-19T08:05:04;12.98;;;7.40;;
15476;SDS011;7840;42.702;23.296;2022-08-19T08:07:50;8.90;;;6.57;;
15476;SDS011;7840;42.702;23.296;2022-08-19T08:10:36;11.93;;;6.88;;
15476;SDS011;7840;42.702;23.296;2022-08-19T08:13:04;8.57;;;6.45;;
15476;SDS011;7840;42.702;23.296;2022-08-19T08:15:32;9.80;;;7.35;;
15476;SDS011;7840;42.702;23.296;2022-08-19T08:17:59;10.93;;;6.47;;
15476;SDS011;7840;42.702;23.296;2022-08-19T08:20:27;13.73;;;6.35;;
15476;SDS011;7840;42.702;23.296;2022-08-19T08:22:55;11.95;;;6.30;;
15476;SDS011;7840;42.702;23.296;2022-08-19T08:25:49;10.63;;;6.05;;
15476;SDS011;7840;42.702;23.296;2022-08-19T08:28:19;10.52;;;6.10;;
15476;SDS011;7840;42.702;23.296;2022-08-19T08:30:48;9.80;;;5.72;;
15476;SDS011;7840;42.702;23.296;2022-08-19T08:33:20;11.18;;;5.97;;
15476;SDS011;7840;42.702;23.296;2022-08-19T08:35:49;11.18;;;6.38;;
15476;SDS011;7840;42.702;23.296;2022-08-19T08:38:17;8.50;;;5.97;;
15476;SDS011;7840;42.702;23.296;2022-08-19T08:40:47;10.20;;;6.00;;
15476;SDS011;7840;42.702;23.296;2022-08-19T08:43:34;10.85;;;6.75;;
15476;SDS011;7840;42.702;23.296;2022-08-19T08:46:07;6.85;;;5.68;;
15476;SDS011;7840;42.702;23.296;2022-08-19T08:51:25;6.90;;;5.55;;
15476;SDS011;7840;42.702;23.296;2022-08-19T08:53:58;7.53;;;5.40;;
15476;SDS011;7840;42.702;23.296;2022-08-19T08:56:47;6.65;;;5.63;;
15476;SDS011;7840;42.702;23.296;2022-08-19T08:59:21;7.00;;;4.90;;
15476;SDS011;7840;42.702;23.296;2022-08-19T09:01:51;7.35;;;4.85;;
15476;SDS011;7840;42.702;23.296;2022-08-19T09:04:20;7.60;;;5.28;;
15476;SDS011;7840;42.702;23.296;2022-08-19T09:07:13;7.43;;;5.18;;
15476;SDS011;7840;42.702;23.296;2022-08-19T09:10:15;8.60;;;4.82;;
15476;SDS011;7840;42.702;23.296;2022-08-19T09:15:16;6.63;;;4.63;;
15476;SDS011;7840;42.702;23.296;2022-08-19T09:17:54;7.53;;;4.57;;
15476;SDS011;7840;42.702;23.296;2022-08-19T09:20:28;7.68;;;4.75;;
15476;SDS011;7840;42.702;23.296;2022-08-19T09:23:10;6.22;;;4.47;;
15476;SDS011;7840;42.702;23.296;2022-08-19T09:25:43;5.10;;;4.63;;
15476;SDS011;7840;42.702;23.296;2022-08-19T09:28:17;4.85;;;4.30;;
15476;SDS011;7840;42.702;23.296;2022-08-19T09:30:50;4.70;;;3.80;;
15476;SDS011;7840;42.702;23.296;2022-08-19T09:33:22;8.73;;;4.15;;
15476;SDS011;7840;42.702;23.296;2022-08-19T09:36:13;5.85;;;3.97;;
15476;SDS011;7840;42.702;23.296;2022-08-19T09:38:44;5.68;;;3.97;;
15476;SDS011;7840;42.702;23.296;2022-08-19T09:41:35;6.20;;;3.70;;
15476;SDS011;7840;42.702;23.296;2022-08-19T09:44:04;5.22;;;3.90;;
15476;SDS011;7840;42.702;23.296;2022-08-19T09:49:39;5.15;;;3.83;;
15476;SDS011;7840;42.702;23.296;2022-08-19T09:52:29;9.82;;;3.72;;
15476;SDS011;7840;42.702;23.296;2022-08-19T09:55:02;3.72;;;3.45;;
15476;SDS011;7840;42.702;23.296;2022-08-19T09:58:01;4.20;;;3.47;;
15476;SDS011;7840;42.702;23.296;2022-08-19T10:00:59;3.45;;;3.15;;
15476;SDS011;7840;42.702;23.296;2022-08-19T10:03:33;3.75;;;3.42;;
15476;SDS011;7840;42.702;23.296;2022-08-19T10:06:17;5.60;;;3.75;;
15476;SDS011;7840;42.702;23.296;2022-08-19T10:08:48;4.65;;;3.53;;
15476;SDS011;7840;42.702;23.296;2022-08-19T10:11:22;3.90;;;3.58;;
15476;SDS011;7840;42.702;23.296;2022-08-19T10:13:53;6.40;;;3.85;;
15476;SDS011;7840;42.702;23.296;2022-08-19T10:16:47;5.35;;;3.88;;
15476;SDS011;7840;42.702;23.296;2022-08-19T10:19:26;4.38;;;3.95;;
15476;SDS011;7840;42.702;23.296;2022-08-19T10:22:18;4.28;;;3.90;;
15476;SDS011;7840;42.702;23.296;2022-08-19T10:24:57;7.00;;;4.60;;
15476;SDS011;7840;42.702;23.296;2022-08-19T10:27:25;7.15;;;4.22;;
15476;SDS011;7840;42.702;23.296;2022-08-19T10:29:53;4.72;;;3.80;;
15476;SDS011;7840;42.702;23.296;2022-08-19T10:35:38;5.88;;;4.35;;
15476;SDS011;7840;42.702;23.296;2022-08-19T10:38:20;4.43;;;4.03;;
15476;SDS011;7840;42.702;23.296;2022-08-19T10:40:48;4.80;;;3.95;;
15476;SDS011;7840;42.702;23.296;2022-08-19T10:43:20;6.10;;;3.83;;
15476;SDS011;7840;42.702;23.296;2022-08-19T10:45:54;5.30;;;3.85;;
15476;SDS011;7840;42.702;23.296;2022-08-19T10:48:24;5.35;;;4.15;;
15476;SDS011;7840;42.702;23.296;2022-08-19T10:50:58;4.47;;;4.07;;
15476;SDS011;7840;42.702;23.296;2022-08-19T10:53:43;9.00;;;4.25;;
15476;SDS011;7840;42.702;23.296;2022-08-19T10:56:11;4.78;;;4.28;;
15476;SDS011;7840;42.702;23.296;2022-08-19T10:58:58;4.28;;;3.90;;
15476;SDS011;7840;42.702;23.296;2022-08-19T11:01:40;6.03;;;4.40;;
15476;SDS011;7840;42.702;23.296;2022-08-19T11:04:23;5.15;;;4.05;;
15476;SDS011;7840;42.702;23.296;2022-08-19T11:07:00;5.18;;;4.40;;
15476;SDS011;7840;42.702;23.296;2022-08-19T11:10:06;5.15;;;3.92;;
15476;SDS011;7840;42.702;23.296;2022-08-19T11:12:48;5.10;;;4.40;;
15476;SDS011;7840;42.702;23.296;2022-08-19T11:15:19;4.63;;;4.22;;
15476;SDS011;7840;42.702;23.296;2022-08-19T11:17:47;4.72;;;4.32;;
15476;SDS011;7840;42.702;23.296;2022-08-19T11:20:17;5.07;;;4.40;;
15476;SDS011;7840;42.702;23.296;2022-08-19T11:22:53;4.82;;;4.25;;
15476;SDS011;7840;42.702;23.296;2022-08-19T11:25:25;6.25;;;4.28;;
15476;SDS011;7840;42.702;23.296;2022-08-19T11:27:55;4.55;;;4.15;;
15476;SDS011;7840;42.702;23.296;2022-08-19T11:30:25;4.38;;;3.85;;
15476;SDS011;7840;42.702;23.296;2022-08-19T11:32:53;4.70;;;4.28;;
15476;SDS011;7840;42.702;23.296;2022-08-19T11:35:25;5.35;;;4.20;;
15476;SDS011;7840;42.702;23.296;2022-08-19T11:37:56;7.07;;;4.30;;
15476;SDS011;7840;42.702;23.296;2022-08-19T11:43:10;4.95;;;4.45;;
15476;SDS011;7840;42.702;23.296;2022-08-19T11:45:38;4.30;;;3.88;;
15476;SDS011;7840;42.702;23.296;2022-08-19T11:48:06;8.90;;;4.35;;
15476;SDS011;7840;42.702;23.296;2022-08-19T11:50:36;4.70;;;4.20;;
15476;SDS011;7840;42.702;23.296;2022-08-19T11:56:05;12.15;;;4.85;;
15476;SDS011;7840;42.702;23.296;2022-08-19T11:58:50;4.68;;;4.15;;
15476;SDS011;7840;42.702;23.296;2022-08-19T12:01:45;4.95;;;4.55;;
15476;SDS011;7840;42.702;23.296;2022-08-19T12:04:21;5.40;;;4.70;;
15476;SDS011;7840;42.702;23.296;2022-08-19T12:06:50;5.80;;;4.30;;
15476;SDS011;7840;42.702;23.296;2022-08-19T12:09:23;4.95;;;4.45;;
15476;SDS011;7840;42.702;23.296;2022-08-19T12:11:51;5.85;;;4.70;;
15476;SDS011;7840;42.702;23.296;2022-08-19T12:14:19;5.20;;;4.30;;
15476;SDS011;7840;42.702;23.296;2022-08-19T12:16:47;5.05;;;4.55;;
15476;SDS011;7840;42.702;23.296;2022-08-19T12:19:14;5.53;;;4.60;;
15476;SDS011;7840;42.702;23.296;2022-08-19T12:21:42;5.20;;;4.18;;
15476;SDS011;7840;42.702;23.296;2022-08-19T12:24:10;5.07;;;3.80;;
15476;SDS011;7840;42.702;23.296;2022-08-19T12:26:39;5.00;;;4.10;;
15476;SDS011;7840;42.702;23.296;2022-08-19T12:29:07;4.75;;;4.28;;
15476;SDS011;7840;42.702;23.296;2022-08-19T12:31:35;7.22;;;4.38;;
15476;SDS011;7840;42.702;23.296;2022-08-19T12:34:05;5.43;;;4.20;;
15476;SDS011;7840;42.702;23.296;2022-08-19T12:36:37;6.30;;;3.85;;
15476;SDS011;7840;42.702;23.296;2022-08-19T12:39:07;8.00;;;4.05;;
15476;SDS011;7840;42.702;23.296;2022-08-19T12:41:36;4.22;;;3.92;;
15476;SDS011;7840;42.702;23.296;2022-08-19T12:44:07;5.18;;;4.65;;
15476;SDS011;7840;42.702;23.296;2022-08-19T12:46:37;5.75;;;4.05;;
15476;SDS011;7840;42.702;23.296;2022-08-19T12:49:05;4.80;;;4.30;;
15476;SDS011;7840;42.702;23.296;2022-08-19T12:51:32;8.38;;;3.95;;
15476;SDS011;7840;42.702;23.296;2022-08-19T12:54:00;4.32;;;3.92;;
15476;SDS011;7840;42.702;23.296;2022-08-19T12:56:28;5.72;;;4.43;;
15476;SDS011;7840;42.702;23.296;2022-08-19T12:59:02;4.70;;;4.30;;
15476;SDS011;7840;42.702;23.296;2022-08-19T13:04:20;6.43;;;5.00;;
15476;SDS011;7840;42.702;23.296;2022-08-19T13:06:48;4.53;;;4.05;;
15476;SDS011;7840;42.702;23.296;2022-08-19T13:09:18;4.88;;;4.38;;
15476;SDS011;7840;42.702;23.296;2022-08-19T13:11:58;7.65;;;4.80;;
15476;SDS011;7840;42.702;23.296;2022-08-19T13:14:34;6.93;;;3.92;;
15476;SDS011;7840;42.702;23.296;2022-08-19T13:17:02;6.28;;;4.07;;
15476;SDS011;7840;42.702;23.296;2022-08-19T13:19:31;5.82;;;4.10;;
15476;SDS011;7840;42.702;23.296;2022-08-19T13:21:58;8.00;;;4.05;;
15476;SDS011;7840;42.702;23.296;2022-08-19T13:24:30;6.40;;;4.57;;
15476;SDS011;7840;42.702;23.296;2022-08-19T13:27:01;4.80;;;4.40;;
15476;SDS011;7840;42.702;23.296;2022-08-19T13:29:30;7.43;;;4.22;;
15476;SDS011;7840;42.702;23.296;2022-08-19T13:32:20;5.25;;;4.35;;
15476;SDS011;7840;42.702;23.296;2022-08-19T13:35:04;6.03;;;4.28;;
15476;SDS011;7840;42.702;23.296;2022-08-19T13:37:46;7.50;;;4.32;;
15476;SDS011;7840;42.702;23.296;2022-08-19T13:40:18;5.13;;;4.68;;
15476;SDS011;7840;42.702;23.296;2022-08-19T13:42:49;5.53;;;4.78;;
15476;SDS011;7840;42.702;23.296;2022-08-19T13:45:21;4.70;;;4.30;;
15476;SDS011;7840;42.702;23.296;2022-08-19T13:47:51;5.97;;;4.45;;
15476;SDS011;7840;42.702;23.296;2022-08-19T13:50:22;7.72;;;4.50;;
15476;SDS011;7840;42.702;23.296;2022-08-19T13:52:52;4.65;;;3.90;;
15476;SDS011;7840;42.702;23.296;2022-08-19T13:55:21;5.47;;;4.35;;
15476;SDS011;7840;42.702;23.296;2022-08-19T13:58:08;5.22;;;4.50;;
15476;SDS011;7840;42.702;23.296;2022-08-19T14:00:41;5.95;;;4.32;;
15476;SDS011;7840;42.702;23.296;2022-08-19T14:03:11;5.85;;;4.30;;
15476;SDS011;7840;42.702;23.296;2022-08-19T14:05:38;11.02;;;5.05;;
15476;SDS011;7840;42.702;23.296;2022-08-19T14:08:08;6.30;;;4.68;;
15476;SDS011;7840;42.702;23.296;2022-08-19T14:10:48;4.95;;;4.55;;
15476;SDS011;7840;42.702;23.296;2022-08-19T14:13:17;5.10;;;4.55;;
15476;SDS011;7840;42.702;23.296;2022-08-19T14:15:48;5.57;;;4.75;;
15476;SDS011;7840;42.702;23.296;2022-08-19T14:18:17;7.80;;;4.88;;
15476;SDS011;7840;42.702;23.296;2022-08-19T14:20:45;5.18;;;4.57;;
15476;SDS011;7840;42.702;23.296;2022-08-19T14:23:13;5.30;;;4.70;;
15476;SDS011;7840;42.702;23.296;2022-08-19T14:25:41;5.13;;;4.63;;
15476;SDS011;7840;42.702;23.296;2022-08-19T14:28:22;5.07;;;4.35;;
15476;SDS011;7840;42.702;23.296;2022-08-19T14:30:52;5.07;;;4.55;;
15476;SDS011;7840;42.702;23.296;2022-08-19T14:33:19;6.05;;;5.28;;
15476;SDS011;7840;42.702;23.296;2022-08-19T14:35:50;8.77;;;5.25;;
15476;SDS011;7840;42.702;23.296;2022-08-19T14:38:18;8.23;;;5.30;;
15476;SDS011;7840;42.702;23.296;2022-08-19T14:40:46;6.30;;;4.95;;
15476;SDS011;7840;42.702;23.296;2022-08-19T14:43:18;7.57;;;5.20;;
15476;SDS011;7840;42.702;23.296;2022-08-19T14:46:13;5.32;;;4.85;;
15476;SDS011;7840;42.702;23.296;2022-08-19T14:48:41;7.63;;;4.80;;
15476;SDS011;7840;42.702;23.296;2022-08-19T14:51:09;6.47;;;5.40;;
15476;SDS011;7840;42.702;23.296;2022-08-19T14:53:37;4.88;;;4.47;;
15476;SDS011;7840;42.702;23.296;2022-08-19T14:56:07;5.75;;;4.85;;
15476;SDS011;7840;42.702;23.296;2022-08-19T14:58:51;7.53;;;4.75;;
15476;SDS011;7840;42.702;23.296;2022-08-19T15:01:27;8.60;;;4.70;;
15476;SDS011;7840;42.702;23.296;2022-08-19T15:03:55;8.73;;;4.75;;
15476;SDS011;7840;42.702;23.296;2022-08-19T15:06:22;6.40;;;4.50;;
15476;SDS011;7840;42.702;23.296;2022-08-19T15:08:51;5.25;;;4.75;;
15476;SDS011;7840;42.702;23.296;2022-08-19T15:11:21;5.45;;;4.63;;
15476;SDS011;7840;42.702;23.296;2022-08-19T15:13:51;5.78;;;4.93;;
15476;SDS011;7840;42.702;23.296;2022-08-19T15:16:20;6.72;;;5.35;;
15476;SDS011;7840;42.702;23.296;2022-08-19T15:18:52;6.28;;;5.10;;
15476;SDS011;7840;42.702;23.296;2022-08-19T15:21:23;5.63;;;4.97;;
15476;SDS011;7840;42.702;23.296;2022-08-19T15:23:51;5.47;;;4.97;;
15476;SDS011;7840;42.702;23.296;2022-08-19T15:26:20;4.97;;;4.50;;
15476;SDS011;7840;42.702;23.296;2022-08-19T15:28:48;5.60;;;5.10;;
15476;SDS011;7840;42.702;23.296;2022-08-19T15:31:18;5.25;;;4.85;;